Time;durP1;ratioP1;P1;durP2;ratioP2;P2;SDS_P1;SDS_P2;PMS_P1;PMS_P2;Temp;Humidity;BMP_temperature;BMP_pressure;BME280_temperature;BME280_humidity;BME280_pressure;Samples;Min_cycle;Max_cycle;Signal;HPM_P1;HPM_P2
2021/08/07 00:00:12;;;;;;;4.33;2.80;;;;;;;18.29;64.83;97791.33;129415;1096;114655;-79
2021/08/07 00:02:38;;;;;;;5.35;2.75;;;;;;;18.24;65.02;97791.68;129471;1095;114489;-79
2021/08/07 00:05:05;;;;;;;4.28;2.70;;;;;;;18.22;65.29;97795.92;129509;1097;22521;-79
2021/08/07 00:07:34;;;;;;;3.30;2.40;;;;;;;18.21;65.38;97799.81;129404;1097;113956;-79
2021/08/07 00:10:01;;;;;;;3.15;2.43;;;;;;;18.23;65.42;97794.77;129427;1097;114220;-79
2021/08/07 00:12:27;;;;;;;4.73;2.70;;;;;;;18.25;65.72;97798.69;129392;1097;114270;-79
2021/08/07 00:14:53;;;;;;;4.83;2.88;;;;;;;18.26;65.47;97794.02;129409;1097;114433;-79
2021/08/07 00:17:20;;;;;;;5.90;3.00;;;;;;;18.25;65.81;97790.52;129588;1096;22533;-79
2021/08/07 00:19:46;;;;;;;5.00;3.00;;;;;;;18.25;65.51;97789.73;129417;1097;113874;-79
2021/08/07 00:22:12;;;;;;;3.45;2.70;;;;;;;18.22;65.56;97793.98;129431;1097;114050;-79
2021/08/07 00:24:38;;;;;;;5.68;2.83;;;;;;;18.22;65.59;97793.98;129357;1097;114141;-79
2021/08/07 00:27:04;;;;;;;4.83;2.95;;;;;;;18.20;65.56;97793.59;129407;1097;114948;-79
2021/08/07 00:29:35;;;;;;;5.03;2.70;;;;;;;18.17;65.52;97790.82;129383;1097;114131;-79
2021/08/07 00:32:03;;;;;;;6.45;3.08;;;;;;;18.12;65.80;97784.55;129511;1096;22512;-80
2021/08/07 00:34:29;;;;;;;5.85;2.80;;;;;;;18.09;65.71;97781.78;129398;1097;114044;-79
2021/08/07 00:36:56;;;;;;;4.08;2.63;;;;;;;18.08;66.04;97783.73;129400;1096;114270;-79
2021/08/07 00:39:22;;;;;;;4.33;2.53;;;;;;;18.09;66.14;97777.12;129409;1095;114067;-79
2021/08/07 00:41:48;;;;;;;3.65;2.58;;;;;;;18.09;66.14;97792.69;129468;1096;114256;-79
2021/08/07 00:44:14;;;;;;;3.03;2.53;;;;;;;18.09;66.17;97795.41;129496;1097;22569;-79
2021/08/07 00:46:40;;;;;;;5.23;2.80;;;;;;;18.08;66.23;97782.95;129417;1097;114918;-79
2021/08/07 00:49:05;;;;;;;4.98;2.80;;;;;;;18.08;66.56;97791.13;129420;1096;114086;-79
2021/08/07 00:51:32;;;;;;;7.03;2.65;;;;;;;18.05;66.16;97794.59;129422;1096;114501;-79
2021/08/07 00:54:00;;;;;;;4.58;2.78;;;;;;;18.03;66.04;97788.72;129401;1097;114219;-79
2021/08/07 00:56:25;;;;;;;4.63;2.80;;;;;;;18.00;66.10;97794.91;129530;1097;23357;-79
2021/08/07 00:58:51;;;;;;;6.65;2.70;;;;;;;17.96;65.99;97802.25;129442;1095;113612;-79
2021/08/07 01:01:19;;;;;;;4.83;2.60;;;;;;;17.91;66.03;97797.92;129353;1096;114106;-79
2021/08/07 01:04:53;;;;;;;4.38;2.83;;;;;;;17.88;66.28;97802.19;129325;1096;114124;-78
2021/08/07 01:08:21;;;;;;;4.03;2.68;;;;;;;17.84;66.77;97793.20;129234;1096;114174;-79
2021/08/07 01:15:22;;;;;;;4.90;2.80;;;;;;;17.87;67.08;97795.16;129558;1095;114561;-79
2021/08/07 01:29:12;;;;;;;;;;;;;;;;;;;;;
2021/08/07 01:32:40;;;;;;;4.35;2.70;;;;;;;17.74;66.89;97799.26;129589;1096;113968;-79
2021/08/07 01:39:36;;;;;;;5.93;2.60;;;;;;;17.63;66.97;97801.84;129574;1096;114060;-78
2021/08/07 01:43:02;;;;;;;8.38;2.40;;;;;;;17.63;67.65;97793.67;129459;1096;114584;-79
2021/08/07 01:49:54;;;;;;;4.53;2.85;;;;;;;17.67;67.66;97799.16;129475;1096;114065;-78
2021/08/07 01:53:21;;;;;;;5.53;2.68;;;;;;;17.67;67.36;97793.72;129547;1096;113989;-79
2021/08/07 01:56:49;;;;;;;4.80;2.90;;;;;;;17.65;67.80;97794.09;129479;1095;113852;-79
2021/08/07 02:00:16;;;;;;;4.25;2.65;;;;;;;17.64;67.76;97797.17;129633;1096;23106;-79
2021/08/07 02:07:08;;;;;;;5.43;2.63;;;;;;;17.56;67.71;97793.57;129465;1095;114296;-78
2021/08/07 02:14:05;;;;;;;3.73;2.43;;;;;;;17.52;68.12;97795.47;129521;1096;114038;-80
2021/08/07 02:17:31;;;;;;;6.23;2.90;;;;;;;17.56;68.00;97798.23;129541;1096;114035;-80
2021/08/07 02:24:28;;;;;;;5.55;3.10;;;;;;;17.59;68.10;97797.50;129555;1095;113759;-79
2021/08/07 02:27:54;;;;;;;7.45;2.70;;;;;;;17.58;68.13;97799.45;129193;1096;115043;-80
2021/08/07 02:31:21;;;;;;;3.35;2.50;;;;;;;17.56;67.80;97803.68;129559;1096;114071;-79
2021/08/07 02:34:48;;;;;;;8.10;2.65;;;;;;;17.53;68.24;97799.00;129576;1096;114034;-80
2021/08/07 02:38:14;;;;;;;4.58;2.73;;;;;;;17.47;67.39;97797.73;129551;1096;114189;-80
2021/08/07 02:41:43;;;;;;;3.60;2.48;;;;;;;17.43;68.18;97808.58;129401;1096;114205;-79
2021/08/07 02:45:09;;;;;;;4.98;2.40;;;;;;;17.44;68.04;97815.58;129646;1095;22547;-79
2021/08/07 02:48:37;;;;;;;7.23;2.63;;;;;;;17.43;68.02;97801.19;129366;1096;113921;-79
2021/08/07 02:52:04;;;;;;;4.88;2.73;;;;;;;17.45;68.62;97816.36;129558;1096;114307;-80
2021/08/07 02:55:32;;;;;;;4.25;2.73;;;;;;;17.43;68.19;97819.45;129486;1096;114041;-79
2021/08/07 02:59:00;;;;;;;4.43;2.68;;;;;;;17.40;67.97;97818.25;129425;1096;114012;-78
2021/08/07 03:05:59;;;;;;;3.95;2.43;;;;;;;17.31;68.31;97815.02;129268;1096;114801;-79
2021/08/07 03:09:26;;;;;;;5.45;2.55;;;;;;;17.27;68.72;97819.63;129469;1097;22962;-80
2021/08/07 03:12:57;;;;;;;5.98;2.30;;;;;;;17.27;68.69;97816.13;129460;1097;113539;-78
2021/08/07 03:16:28;;;;;;;5.90;2.80;;;;;;;17.30;68.86;97827.06;129576;1097;114333;-80
2021/08/07 03:19:55;;;;;;;5.03;2.93;;;;;;;17.31;69.18;97828.63;129275;1097;114169;-78
2021/08/07 03:23:22;;;;;;;7.13;2.70;;;;;;;17.32;69.09;97837.57;129426;1097;113995;-79
2021/08/07 03:26:49;;;;;;;4.65;2.60;;;;;;;17.32;68.00;97840.29;129466;1096;113864;-79
2021/08/07 03:33:44;;;;;;;4.10;2.77;;;;;;;17.25;68.21;97842.90;129535;1095;114077;-79
2021/08/07 03:37:11;;;;;;;4.20;2.60;;;;;;;17.20;68.71;97848.66;129445;1096;114369;-79
2021/08/07 03:40:37;;;;;;;5.63;2.60;;;;;;;17.17;68.95;97850.17;129417;1097;114022;-78
2021/08/07 03:47:29;;;;;;;5.90;2.65;;;;;;;17.23;69.23;97851.44;129552;1097;114033;-80
2021/08/07 03:50:57;;;;;;;4.83;2.65;;;;;;;17.25;69.25;97851.88;129685;1096;23060;-79
2021/08/07 03:54:25;;;;;;;13.78;4.63;;;;;;;17.28;69.01;97862.00;129493;1097;113746;-80
2021/08/07 03:57:47;;;;;;;4.15;2.43;;;;;;;17.27;69.03;97849.55;129545;1096;114675;-79
2021/08/07 04:01:13;;;;;;;5.00;2.85;;;;;;;17.27;68.76;97855.00;129452;1095;114141;-78
2021/08/07 04:05:01;;;;;;;4.53;2.63;;;;;;;17.25;68.96;97861.95;129405;1096;114031;-78
2021/08/07 04:11:37;;;;;;;7.80;2.73;;;;;;;17.24;69.21;97857.66;129436;1097;114028;-78
2021/08/07 04:15:04;;;;;;;4.00;2.40;;;;;;;17.27;69.39;97846.05;129544;1097;113745;-79
2021/08/07 04:25:26;;;;;;;4.20;2.73;;;;;;;17.44;69.19;97842.80;129436;1097;114049;-79
2021/08/07 04:39:20;;;;;;;8.65;3.23;;;;;;;17.53;68.95;97867.05;129452;1096;114632;-78
2021/08/07 04:42:47;;;;;;;5.98;3.05;;;;;;;17.55;69.39;97851.12;129578;1097;114122;-79
2021/08/07 04:49:42;;;;;;;5.65;2.85;;;;;;;17.70;69.05;97852.88;129519;1096;114032;-78
2021/08/07 04:53:02;;;;;;;;;;;;;;;;;;;;;
2021/08/07 04:56:32;;;;;;;3.95;2.50;;;;;;;17.87;68.98;97840.67;129397;1095;114118;-79
2021/08/07 04:59:59;;;;;;;4.55;2.68;;;;;;;17.93;68.88;97839.20;129519;1097;114081;-80
2021/08/07 05:03:27;;;;;;;5.45;2.60;;;;;;;18.00;68.87;97844.75;129567;1095;113914;-80
2021/08/07 05:06:53;;;;;;;4.25;2.20;;;;;;;18.07;69.16;97849.47;129511;1096;114301;-79
2021/08/07 05:10:20;;;;;;;5.20;2.60;;;;;;;18.12;68.70;97860.84;129468;1096;114105;-79
2021/08/07 05:13:46;;;;;;;5.55;2.30;;;;;;;18.22;68.76;97869.50;129534;1096;114071;-80
2021/08/07 05:17:19;;;;;;;2.63;2.05;;;;;;;18.36;68.76;97875.13;129589;1095;114092;-80
2021/08/07 05:20:47;;;;;;;4.48;2.38;;;;;;;18.53;68.46;97874.52;129348;1095;113982;-80
2021/08/07 05:24:14;;;;;;;3.78;2.30;;;;;;;18.72;68.04;97879.03;129722;1095;22567;-80
2021/08/07 05:27:43;;;;;;;3.33;2.03;;;;;;;18.88;67.40;97890.48;129549;1095;113885;-79
2021/08/07 05:31:11;;;;;;;4.38;2.63;;;;;;;19.04;67.92;97882.05;129641;1097;114204;-79
2021/08/07 05:34:39;;;;;;;4.73;2.93;;;;;;;19.18;67.63;97886.84;129565;1097;114050;-79
2021/08/07 05:38:06;;;;;;;3.83;2.70;;;;;;;19.28;67.44;97880.67;129539;1096;114115;-80
2021/08/07 05:41:34;;;;;;;7.00;2.40;;;;;;;19.42;67.32;97876.48;129540;1097;114349;-80
2021/08/07 05:45:00;;;;;;;4.58;2.50;;;;;;;19.57;67.54;97876.20;129485;1096;113989;-80
2021/08/07 05:48:28;;;;;;;5.60;2.50;;;;;;;19.75;67.32;97887.25;129440;1095;113885;-79
2021/08/07 05:51:56;;;;;;;5.13;2.88;;;;;;;19.88;67.17;97895.89;129451;1096;114219;-79
2021/08/07 05:58:48;;;;;;;6.65;3.53;;;;;;;20.15;66.71;97899.16;129313;1096;114092;-79
2021/08/07 06:02:15;;;;;;;7.90;2.63;;;;;;;20.29;66.24;97895.70;129538;1096;114206;-78
2021/08/07 06:05:43;;;;;;;4.55;2.50;;;;;;;20.40;65.17;97898.48;129425;1096;114170;-78
2021/08/07 06:09:09;;;;;;;3.80;2.50;;;;;;;20.50;63.41;97897.75;129392;1096;113689;-78
2021/08/07 06:12:37;;;;;;;5.15;2.95;;;;;;;20.58;62.85;97894.64;129505;1096;116781;-78
2021/08/07 06:16:04;;;;;;;4.03;2.58;;;;;;;20.69;62.96;97902.09;129474;1096;114218;-79
2021/08/07 06:19:31;;;;;;;4.47;2.53;;;;;;;20.77;62.68;97904.45;129481;1096;114046;-79
2021/08/07 06:22:58;;;;;;;4.23;2.80;;;;;;;20.87;61.04;97904.84;129499;1096;114106;-79
2021/08/07 06:29:34;;;;;;;2.60;2.20;;;;;;;21.03;59.87;97897.84;129280;1096;113930;-79
2021/08/07 06:32:53;;;;;;;;;;;;;;;;;;;;;
2021/08/07 06:36:28;;;;;;;4.75;2.60;;;;;;;21.22;59.51;97907.64;129449;1095;113791;-78
2021/08/07 06:40:00;;;;;;;3.40;2.48;;;;;;;21.32;59.40;97901.39;129586;1096;115018;-81
2021/08/07 06:43:27;;;;;;;5.55;2.65;;;;;;;21.47;59.45;97902.17;129545;1095;114216;-79
2021/08/07 06:46:59;;;;;;;4.23;2.58;;;;;;;21.61;59.26;97914.27;129618;1096;112950;-80
2021/08/07 06:50:31;;;;;;;3.38;2.30;;;;;;;21.70;58.71;97917.41;129360;1096;114250;-81
2021/08/07 06:53:30;;;;;;;;;;;;;;;;;;;;;
2021/08/07 06:56:58;;;;;;;4.60;2.53;;;;;;;21.85;57.94;97915.41;129635;1096;100170;-79
2021/08/07 07:00:26;;;;;;;4.80;2.55;;;;;;;21.96;57.75;97910.68;129580;1096;113886;-79
2021/08/07 07:03:52;;;;;;;3.38;2.38;;;;;;;22.07;57.77;97911.44;129560;1096;114198;-80
2021/08/07 07:07:19;;;;;;;3.90;2.38;;;;;;;22.20;57.23;97918.06;129562;1096;114054;-79
2021/08/07 07:10:46;;;;;;;4.03;2.35;;;;;;;22.34;56.27;97919.20;129612;1096;112957;-81
2021/08/07 07:14:14;;;;;;;3.90;2.50;;;;;;;22.49;57.05;97918.74;129576;1096;114214;-80
2021/08/07 07:17:40;;;;;;;2.93;2.08;;;;;;;22.67;56.78;97923.34;129320;1096;114008;-79
2021/08/07 07:24:34;;;;;;;4.20;2.20;;;;;;;22.93;55.68;97917.34;129378;1096;114257;-79
2021/08/07 07:28:01;;;;;;;3.53;2.15;;;;;;;23.07;55.38;97927.45;129596;1096;114210;-79
2021/08/07 07:31:28;;;;;;;5.38;2.45;;;;;;;23.21;54.78;97930.08;129585;1096;114070;-81
2021/08/07 07:34:55;;;;;;;3.08;2.13;;;;;;;23.34;53.85;97930.36;129632;1096;114067;-82
2021/08/07 07:38:20;;;;;;;;;;;;;;;;;;;;;
2021/08/07 07:41:49;;;;;;;4.75;2.30;;;;;;;23.62;53.34;97923.87;129459;1096;113909;-80
2021/08/07 07:45:17;;;;;;;3.38;2.33;;;;;;;23.75;51.78;97935.16;129569;1096;112854;-81
2021/08/07 07:48:45;;;;;;;4.80;2.43;;;;;;;23.81;51.92;97939.00;129549;1095;114149;-80
2021/08/07 07:55:38;;;;;;;4.00;2.45;;;;;;;23.92;51.07;97933.41;129416;1095;114018;-81
2021/08/07 07:59:13;;;;;;;3.95;2.55;;;;;;;24.04;50.64;97929.35;129542;1100;114403;-83
2021/08/07 08:02:54;;;;;;;3.48;2.20;;;;;;;24.11;50.73;97932.80;129314;1096;112975;-83
2021/08/07 08:06:00;;;;;;;;;;;;;;;24.19;49.65;97914.25;128473;1100;113893;-79
2021/08/07 08:09:12;;;;;;;3.43;2.13;;;;;;;24.26;49.25;97911.41;128549;1098;21702;-80
2021/08/07 08:12:18;;;;;;;;;;;;;;;24.33;48.97;97927.07;128529;1099;115044;-80
2021/08/07 08:19:20;;;;;;;3.33;2.40;;;;;;;24.45;48.61;97919.07;128450;1100;114102;-81
2021/08/07 08:22:47;;;;;;;3.00;2.15;;;;;;;24.55;47.98;97920.11;128437;1098;114226;-80
2021/08/07 08:26:26;;;;;;;3.53;2.20;;;;;;;24.63;46.49;97921.57;128607;1097;114258;-80
2021/08/07 08:29:49;;;;;;;2.75;2.20;;;;;;;24.68;46.27;97920.33;129397;1096;114056;-81
2021/08/07 08:33:16;;;;;;;3.55;2.20;;;;;;;24.77;46.18;97917.86;129517;1096;113921;-81
2021/08/07 08:36:36;;;;;;;;;;;;;;;;;;;;;
2021/08/07 08:40:06;;;;;;;2.98;1.95;;;;;;;24.94;44.46;97933.33;129505;1096;114202;-79
2021/08/07 08:43:33;;;;;;;3.20;2.13;;;;;;;24.99;44.52;97929.33;129582;1097;114018;-80
2021/08/07 08:50:27;;;;;;;3.50;2.58;;;;;;;25.12;44.84;97932.33;129523;1097;114032;-80
2021/08/07 08:53:53;;;;;;;3.55;2.55;;;;;;;25.24;45.29;97926.23;129309;1097;113907;-79
2021/08/07 09:04:15;;;;;;;3.75;2.08;;;;;;;25.42;44.21;97953.49;129528;1096;114386;-79
2021/08/07 09:11:04;;;;;;;4.10;2.70;;;;;;;25.55;44.90;97931.64;129462;1097;113985;-79
2021/08/07 09:14:14;;;;;;;6.70;3.28;;;;;;;25.66;44.72;97934.97;129455;1096;113071;-81
2021/08/07 09:17:40;;;;;;;4.18;3.00;;;;;;;25.75;45.00;97929.70;129572;1097;114040;-80
2021/08/07 09:24:35;;;;;;;4.25;2.60;;;;;;;25.90;45.23;97936.55;129669;1096;114501;-78
2021/08/07 09:28:11;;;;;;;3.20;2.30;;;;;;;26.02;44.09;97931.62;129571;1096;114200;-80
2021/08/07 09:31:37;;;;;;;3.40;2.40;;;;;;;26.01;42.54;97927.28;129416;1097;114039;-80
2021/08/07 09:42:18;;;;;;;3.75;2.33;;;;;;;26.35;42.67;97943.58;129558;1095;22547;-81
2021/08/07 09:56:09;;;;;;;5.85;3.00;;;;;;;26.87;42.35;97921.56;129554;1097;113956;-79
2021/08/07 10:03:05;;;;;;;3.98;2.73;;;;;;;27.09;41.79;97927.39;129276;1097;113731;-80
2021/08/07 10:06:36;;;;;;;4.95;2.55;;;;;;;27.18;41.21;97918.52;129560;1095;114338;-80
2021/08/07 10:10:04;;;;;;;;;;;;;;;;;;;;;
2021/08/07 10:13:39;;;;;;;3.30;2.40;;;;;;;27.45;41.92;97921.02;129130;1098;114055;-80
2021/08/07 10:17:06;;;;;;;4.60;2.70;;;;;;;27.68;41.69;97924.80;129482;1095;114022;-80
2021/08/07 10:27:12;;;;;;;;;;;;;;;;;;;;;
2021/08/07 10:30:40;;;;;;;7.05;2.53;;;;;;;28.19;40.01;97900.13;129544;1096;114141;-80
2021/08/07 10:34:31;;;;;;;4.90;2.70;;;;;;;28.33;38.72;97911.55;129409;1095;114256;-77
2021/08/07 10:37:37;;;;;;;3.30;2.10;;;;;;;28.42;37.07;97912.95;129273;1096;114224;-77
2021/08/07 10:41:05;;;;;;;3.90;2.40;;;;;;;28.56;37.61;97896.66;129239;1099;114190;-79
2021/08/07 10:44:37;;;;;;;7.08;3.05;;;;;;;28.71;36.81;97907.33;129391;1095;114066;-78
2021/08/07 10:51:35;;;;;;;3.43;2.50;;;;;;;28.93;36.82;97896.38;129531;1100;114097;-80
2021/08/07 10:55:08;;;;;;;2.75;2.40;;;;;;;29.07;35.57;97905.02;129454;1096;115731;-79
2021/08/07 10:58:35;;;;;;;2.63;1.93;;;;;;;29.10;34.77;97897.81;129488;1098;114087;-77
2021/08/07 11:01:57;;;;;;;;;;;;;;;;;;;;;
2021/08/07 11:05:27;;;;;;;3.05;2.18;;;;;;;29.36;34.84;97884.70;129535;1096;114048;-79
2021/08/07 11:08:48;;;;;;;;;;;;;;;;;;;;;
2021/08/07 11:12:28;;;;;;;3.80;2.38;;;;;;;29.61;34.63;97872.00;129451;1096;114791;-79
2021/08/07 11:15:55;;;;;;;2.05;1.88;;;;;;;29.79;34.12;97867.38;129558;1096;114230;-79
2021/08/07 11:19:26;;;;;;;4.43;2.05;;;;;;;30.02;34.28;97866.13;129300;1096;114089;-79
2021/08/07 11:26:35;;;;;;;3.98;2.25;;;;;;;30.36;33.40;97856.19;129367;1096;114063;-80
2021/08/07 11:30:40;;;;;;;5.08;2.10;;;;;;;30.46;32.65;97866.13;129150;1096;22566;-79
2021/08/07 11:37:09;;;;;;;3.05;1.90;;;;;;;30.69;32.42;97875.94;129593;1096;114198;-79
2021/08/07 11:40:46;;;;;;;5.25;2.30;;;;;;;30.84;32.86;97862.29;129472;1096;114063;-78
2021/08/07 11:47:45;;;;;;;2.58;2.00;;;;;;;31.16;32.33;97860.98;129489;1095;113825;-79
2021/08/07 11:51:14;;;;;;;2.30;2.10;;;;;;;31.31;32.22;97866.77;129406;1096;114068;-79
2021/08/07 11:54:44;;;;;;;2.40;2.10;;;;;;;31.33;31.23;97863.53;129262;1096;114353;-78
2021/08/07 12:01:52;;;;;;;2.60;2.28;;;;;;;31.21;31.69;97865.19;129268;1096;114002;-79
2021/08/07 12:05:20;;;;;;;3.45;2.20;;;;;;;31.36;32.43;97851.46;129438;1100;114009;-78
2021/08/07 12:08:32;;;;;;;;;;;;;;;;;;;;;
2021/08/07 12:15:27;;;;;;;2.53;2.18;;;;;;;31.83;30.87;97848.22;129407;1097;113860;-79
2021/08/07 12:18:53;;;;;;;2.15;1.95;;;;;;;31.97;29.69;97847.63;129369;1096;114240;-78
2021/08/07 12:32:49;;;;;;;4.18;2.10;;;;;;;33.03;28.73;97820.03;129440;1096;114044;-78
2021/08/07 12:36:16;;;;;;;2.93;2.08;;;;;;;33.13;29.62;97813.13;129567;1096;22515;-79
2021/08/07 12:40:10;;;;;;;2.45;2.10;;;;;;;33.32;29.07;97808.97;129463;1096;113864;-78
2021/08/07 12:43:23;;;;;;;2.20;2.00;;;;;;;33.61;28.72;97794.34;129132;1096;114007;-79
2021/08/07 12:46:48;;;;;;;2.90;2.10;;;;;;;33.82;28.13;97805.63;129437;1096;114023;-78
2021/08/07 12:50:15;;;;;;;3.45;2.25;;;;;;;33.80;28.49;97796.95;129346;1097;114047;-79
2021/08/07 12:53:52;;;;;;;2.78;2.18;;;;;;;34.06;28.10;97791.61;129435;1097;114068;-78
2021/08/07 12:57:18;;;;;;;4.23;2.40;;;;;;;34.26;28.00;97794.47;129568;1096;22505;-77
2021/08/07 13:00:48;;;;;;;2.93;1.90;;;;;;;34.32;26.99;97808.55;129456;1097;113911;-79
2021/08/07 13:04:15;;;;;;;3.35;2.20;;;;;;;34.06;27.23;97799.98;129215;1096;113986;-78
2021/08/07 13:08:01;;;;;;;2.90;2.30;;;;;;;34.34;27.39;97795.62;129460;1095;114106;-79
2021/08/07 13:25:32;;;;;;;3.15;2.08;;;;;;;34.71;26.33;97777.65;129190;1096;114172;-80
2021/08/07 13:28:58;;;;;;;2.15;1.95;;;;;;;34.38;26.44;97773.83;129436;1096;114161;-78
2021/08/07 13:32:34;;;;;;;2.40;2.20;;;;;;;34.73;26.46;97778.69;129402;1096;113995;-79
2021/08/07 13:36:00;;;;;;;2.48;2.28;;;;;;;34.98;25.57;97768.06;129435;1096;113848;-78
2021/08/07 13:39:27;;;;;;;3.43;2.50;;;;;;;35.22;25.22;97765.11;129386;1096;113854;-77
2021/08/07 13:42:54;;;;;;;2.25;2.00;;;;;;;35.37;24.49;97762.97;129192;1096;114495;-78
2021/08/07 13:49:48;;;;;;;3.58;2.58;;;;;;;35.95;24.65;97777.06;129421;1096;114001;-78
2021/08/07 13:53:15;;;;;;;3.13;2.53;;;;;;;36.06;24.21;97763.19;129403;1096;114356;-79
2021/08/07 14:00:08;;;;;;;2.00;1.85;;;;;;;35.27;24.07;97778.39;129414;1096;113902;-79
2021/08/07 14:03:35;;;;;;;3.53;2.30;;;;;;;35.49;24.08;97766.68;129433;1096;113824;-76
2021/08/07 14:07:01;;;;;;;3.13;2.25;;;;;;;36.08;24.51;97772.64;129213;1095;114219;-77
2021/08/07 14:13:55;;;;;;;4.45;2.30;;;;;;;36.84;23.45;97758.12;129417;1096;114056;-77
2021/08/07 14:20:48;;;;;;;3.68;2.20;;;;;;;37.56;22.85;97753.31;129424;1096;115207;-78
2021/08/07 14:27:41;;;;;;;2.53;2.20;;;;;;;38.18;20.94;97744.95;129186;1099;113737;-78
2021/08/07 14:31:14;;;;;;;3.50;2.43;;;;;;;38.27;19.87;97736.23;129432;1096;114289;-78
2021/08/07 14:34:41;;;;;;;4.15;2.55;;;;;;;38.63;21.00;97745.65;129175;1100;113987;-78
2021/08/07 14:38:07;;;;;;;2.40;2.20;;;;;;;38.59;19.65;97739.52;129399;1095;113922;-77
2021/08/07 14:41:34;;;;;;;2.58;2.30;;;;;;;38.69;20.13;97740.78;129434;1096;113983;-77
2021/08/07 14:48:29;;;;;;;3.13;2.20;;;;;;;38.75;20.32;97733.10;129413;1095;113876;-77
2021/08/07 14:51:57;;;;;;;2.40;2.18;;;;;;;38.94;20.11;97736.11;129198;1096;114180;-78
2021/08/07 15:02:20;;;;;;;2.85;2.05;;;;;;;37.62;21.06;97739.29;129414;1096;114191;-77
2021/08/07 15:09:14;;;;;;;3.40;2.53;;;;;;;38.30;20.20;97726.78;129412;1096;114006;-77
2021/08/07 15:12:41;;;;;;;2.85;2.33;;;;;;;37.70;20.49;97707.36;129425;1096;114547;-78
2021/08/07 15:19:24;;;;;;;3.60;2.48;;;;;;;38.52;20.42;97715.52;129282;1096;114231;-76
2021/08/07 15:22:54;;;;;;;3.30;2.38;;;;;;;39.57;19.20;97716.84;129420;1097;114020;-79
2021/08/07 15:26:11;;;;;;;3.65;2.53;;;;;;;39.37;18.64;97726.45;129426;1096;114054;-77
2021/08/07 15:29:38;;;;;;;3.33;2.70;;;;;;;40.67;18.86;97721.30;129561;1096;113995;-78
2021/08/07 15:33:05;;;;;;;3.28;2.43;;;;;;;41.40;18.00;97718.36;129468;1096;113867;-77
2021/08/07 15:36:31;;;;;;;3.65;2.70;;;;;;;42.32;17.48;97719.98;129444;1096;115437;-77
2021/08/07 15:39:58;;;;;;;5.55;2.78;;;;;;;43.51;15.61;97716.31;129452;1096;114233;-79
2021/08/07 15:43:24;;;;;;;4.58;2.78;;;;;;;44.73;15.04;97710.91;129423;1095;114564;-79
2021/08/07 15:46:51;;;;;;;3.63;2.68;;;;;;;45.58;14.33;97711.24;129448;1096;114012;-78
2021/08/07 15:50:20;;;;;;;7.05;3.03;;;;;;;46.73;13.57;97698.53;129398;1096;114061;-78
2021/08/07 15:53:47;;;;;;;4.78;2.30;;;;;;;47.17;12.23;97706.73;129092;1096;114469;-78
2021/08/07 15:57:14;;;;;;;4.78;2.90;;;;;;;47.44;12.54;97703.38;129404;1098;114052;-78
2021/08/07 16:05:59;;;;;;;3.23;2.60;;;;;;;45.81;12.98;97703.52;129717;1096;113769;-78
2021/08/07 16:09:26;;;;;;;3.15;2.83;;;;;;;45.61;13.08;97702.34;129725;1096;114337;-78
2021/08/07 16:12:53;;;;;;;4.20;2.65;;;;;;;45.34;12.98;97701.88;129653;1095;114271;-78
2021/08/07 16:16:20;;;;;;;3.38;2.70;;;;;;;44.42;13.87;97695.75;129679;1095;114038;-80
2021/08/07 16:23:15;;;;;;;4.95;2.70;;;;;;;40.81;17.00;97694.71;129591;1096;114001;-77
2021/08/07 16:26:42;;;;;;;3.60;2.48;;;;;;;39.67;17.87;97696.31;129732;1096;114030;-79
2021/08/07 16:30:00;;;;;;;;;;;;;;;;;;;;;
2021/08/07 16:36:46;;;;;;;;;;;;;;;;;;;;;
2021/08/07 16:40:14;;;;;;;4.95;2.78;;;;;;;36.81;21.13;97680.55;129701;1095;114188;-78
2021/08/07 16:43:40;;;;;;;4.53;2.80;;;;;;;36.40;21.82;97677.30;129809;1095;114036;-79
2021/08/07 16:47:08;;;;;;;4.50;2.70;;;;;;;35.62;22.77;97675.44;129783;1095;113992;-79
2021/08/07 16:50:34;;;;;;;4.13;2.28;;;;;;;35.01;23.59;97680.39;129746;1095;114053;-79
2021/08/07 16:54:01;;;;;;;4.90;2.75;;;;;;;34.50;23.97;97676.94;129620;1095;115111;-78
2021/08/07 16:57:28;;;;;;;2.55;2.10;;;;;;;34.04;24.90;97677.55;129825;1096;22649;-78
2021/08/07 17:04:00;;;;;;;3.13;2.28;;;;;;;33.29;26.18;97689.16;129785;1096;114303;-78
2021/08/07 17:07:28;;;;;;;6.10;2.98;;;;;;;33.80;25.42;97677.66;129715;1096;114067;-78
2021/08/07 17:10:54;;;;;;;5.88;2.58;;;;;;;33.64;25.50;97670.55;129742;1096;114081;-78
2021/08/07 17:14:20;;;;;;;4.53;2.60;;;;;;;33.43;25.99;97685.62;129782;1096;114066;-80
2021/08/07 17:18:08;;;;;;;3.40;2.35;;;;;;;32.92;26.68;97686.66;129730;1095;113864;-78
2021/08/07 17:28:08;;;;;;;2.60;2.28;;;;;;;31.65;28.23;97690.37;129753;1096;114222;-79
2021/08/07 17:35:15;;;;;;;;;;;;;;;;;;;;;
2021/08/07 17:38:32;;;;;;;5.25;2.55;;;;;;;30.73;29.76;97686.80;129718;1096;114057;-80
2021/08/07 17:41:59;;;;;;;4.15;2.60;;;;;;;30.49;30.53;97681.83;129772;1096;113783;-79
2021/08/07 17:45:25;;;;;;;2.65;2.18;;;;;;;30.22;30.55;97685.34;129888;1096;22618;-79
2021/08/07 17:48:52;;;;;;;3.53;2.60;;;;;;;29.97;31.03;97688.28;129721;1096;114129;-78
2021/08/07 18:02:44;;;;;;;2.33;2.08;;;;;;;28.98;33.25;97701.81;129733;1096;114549;-80
2021/08/07 18:06:10;;;;;;;4.30;2.40;;;;;;;28.78;33.48;97697.30;129422;1096;114005;-79
2021/08/07 18:16:32;;;;;;;4.45;2.35;;;;;;;28.31;34.40;97686.95;129575;1096;114053;-79
2021/08/07 18:19:59;;;;;;;5.80;2.43;;;;;;;28.16;34.91;97685.08;129685;1096;113998;-80
2021/08/07 18:23:32;;;;;;;3.08;2.38;;;;;;;28.02;35.00;97692.63;129504;1096;114013;-80
2021/08/07 18:26:58;;;;;;;4.18;2.70;;;;;;;27.88;34.67;97695.81;129463;1095;22531;-79
2021/08/07 18:30:24;;;;;;;5.33;2.30;;;;;;;27.78;34.94;97683.84;129579;1096;114025;-79
2021/08/07 18:40:41;;;;;;;4.40;2.38;;;;;;;27.49;35.32;97705.24;129672;1096;114065;-79
2021/08/07 18:44:32;;;;;;;3.50;2.40;;;;;;;27.37;35.77;97703.99;129722;1096;113977;-79
2021/08/07 18:47:44;;;;;;;4.93;2.73;;;;;;;27.26;36.12;97706.27;129344;1096;114072;-80
2021/08/07 18:58:05;;;;;;;4.33;2.25;;;;;;;27.00;36.54;97710.89;129725;1096;114200;-80
2021/08/07 19:01:35;;;;;;;3.58;2.40;;;;;;;26.91;36.64;97715.05;129663;1096;114402;-78
2021/08/07 19:05:00;;;;;;;4.98;2.20;;;;;;;26.84;37.04;97704.20;129626;1096;113018;-80
2021/08/07 19:08:29;;;;;;;5.13;2.43;;;;;;;26.76;36.89;97718.61;129595;1095;114025;-80
2021/08/07 19:11:55;;;;;;;4.30;2.33;;;;;;;26.65;37.36;97714.16;129664;1096;113750;-81
2021/08/07 19:15:01;;;;;;;6.18;2.88;;;;;;;26.56;36.98;97711.20;129451;1096;113975;-78
2021/08/07 19:18:28;;;;;;;;;;;;;;;;;;;;;
2021/08/07 19:28:51;;;;;;;4.93;2.50;;;;;;;26.33;37.77;97722.39;129655;1096;114021;-79
2021/08/07 19:32:19;;;;;;;3.25;2.33;;;;;;;26.25;38.33;97727.30;129391;1096;114059;-80
2021/08/07 19:35:46;;;;;;;4.13;2.63;;;;;;;26.18;38.16;97719.20;129636;1096;114015;-81
2021/08/07 19:39:12;;;;;;;5.55;2.30;;;;;;;26.10;38.39;97723.34;129685;1095;22496;-79
2021/08/07 19:42:39;;;;;;;3.25;2.35;;;;;;;26.01;38.60;97732.17;129615;1095;113914;-80
2021/08/07 19:49:34;;;;;;;2.80;2.13;;;;;;;25.91;38.67;97739.50;129487;1096;113995;-79
2021/08/07 19:53:02;;;;;;;3.23;2.20;;;;;;;25.85;38.88;97737.66;129704;1096;114047;-80
2021/08/07 19:56:34;;;;;;;4.30;2.33;;;;;;;25.76;39.20;97752.00;129771;1095;113965;-80
2021/08/07 20:00:00;;;;;;;4.35;2.80;;;;;;;25.69;39.66;97741.89;129459;1096;113906;-80
2021/08/07 20:03:33;;;;;;;4.68;2.20;;;;;;;25.61;39.94;97743.23;129777;1096;22577;-79
2021/08/07 20:06:59;;;;;;;4.73;2.30;;;;;;;25.53;40.05;97743.81;129352;1096;114254;-80
2021/08/07 20:10:17;;;;;;;;;;;;;;;;;;;;;
2021/08/07 20:13:48;;;;;;;3.18;1.95;;;;;;;25.40;40.62;97747.20;129705;1096;114019;-80
2021/08/07 20:17:15;;;;;;;2.33;1.93;;;;;;;25.33;40.61;97758.36;129764;1096;113985;-80
2021/08/07 20:20:41;;;;;;;5.05;2.10;;;;;;;25.29;40.50;97765.14;129648;1096;114058;-78
2021/08/07 20:24:08;;;;;;;4.33;2.20;;;;;;;25.28;40.38;97766.35;129673;1095;113844;-79
2021/08/07 20:27:35;;;;;;;3.48;2.03;;;;;;;25.27;40.65;97756.51;129724;1095;114233;-79
2021/08/07 20:31:01;;;;;;;4.30;2.25;;;;;;;25.25;40.62;97764.44;129679;1096;114238;-78